Time;durP1;ratioP1;P1;durP2;ratioP2;P2;SDS_P1;SDS_P2;PMS_P1;PMS_P2;Temp;Humidity;BMP_temperature;BMP_pressure;BME280_temperature;BME280_humidity;BME280_pressure;Samples;Min_cycle;Max_cycle;Signal;HPM_P1;HPM_P2
2022/10/04 00:00:37;;;;;;;4.85;3.58;;;;;;;10.48;73.92;97808.34;4915270;29;20475;-59
2022/10/04 00:03:17;;;;;;;4.57;3.20;;;;;;;10.52;74.12;97816.53;4916743;29;20162;-60
2022/10/04 00:05:49;;;;;;;4.65;3.22;;;;;;;10.53;74.48;97820.75;4904946;29;20052;-60
2022/10/04 00:08:45;;;;;;;4.75;3.13;;;;;;;10.56;73.84;97828.16;4916415;29;20059;-60
2022/10/04 00:11:27;;;;;;;3.60;3.10;;;;;;;10.55;74.12;97829.22;4898700;29;20041;-61
2022/10/04 00:13:58;;;;;;;3.85;3.05;;;;;;;10.56;73.73;97831.59;4899571;29;20048;-60
2022/10/04 00:16:30;;;;;;;3.70;2.67;;;;;;;10.52;73.46;97827.13;4915133;29;20040;-61
2022/10/04 00:19:14;;;;;;;5.30;3.88;;;;;;;10.54;74.09;97836.38;4914963;29;20044;-60
2022/10/04 00:21:58;;;;;;;3.53;3.22;;;;;;;10.52;73.92;97835.84;4916193;29;20189;-59
2022/10/04 00:24:28;;;;;;;4.70;3.13;;;;;;;10.50;74.60;97840.66;4915074;29;20382;-61
2022/10/04 00:27:22;;;;;;;6.07;3.20;;;;;;;10.46;74.71;97835.09;4899024;29;20119;-61
2022/10/04 00:30:14;;;;;;;4.35;3.20;;;;;;;10.50;74.17;97842.50;4916256;29;20051;-60
2022/10/04 00:32:39;;;;;;;4.93;3.40;;;;;;;10.50;74.42;97834.53;4899222;29;20107;-60
2022/10/04 00:35:23;;;;;;;7.13;3.40;;;;;;;10.48;74.47;97840.13;4915915;29;20056;-61
2022/10/04 00:38:13;;;;;;;4.20;2.92;;;;;;;10.52;74.46;97850.97;4914518;29;20063;-60
2022/10/04 00:40:47;;;;;;;5.57;3.13;;;;;;;10.52;73.87;97850.97;4915332;29;20048;-58
2022/10/04 00:43:23;;;;;;;5.43;3.30;;;;;;;10.52;74.47;97854.41;4915659;29;20047;-60
2022/10/04 00:46:17;;;;;;;3.80;3.03;;;;;;;10.49;73.87;97847.00;4898808;29;20056;-61
2022/10/04 00:48:43;;;;;;;4.00;3.20;;;;;;;10.46;74.43;97855.50;4898333;29;20115;-59
2022/10/04 00:51:27;;;;;;;4.47;3.17;;;;;;;10.42;74.20;97841.22;4915798;29;20450;-62
2022/10/04 00:54:11;;;;;;;3.70;3.30;;;;;;;10.39;74.16;97852.38;4898850;29;20082;-60
2022/10/04 00:56:55;;;;;;;4.03;3.50;;;;;;;10.36;74.77;97851.06;4915340;29;20427;-58
2022/10/04 00:59:26;;;;;;;7.00;3.65;;;;;;;10.35;74.77;97846.84;4883098;29;20048;-60
2022/10/04 01:01:59;;;;;;;3.88;3.40;;;;;;;10.34;74.60;97847.88;4898457;29;20040;-60
2022/10/04 01:04:35;;;;;;;5.18;3.75;;;;;;;10.33;74.87;97869.34;4915075;29;20052;-60
2022/10/04 01:07:01;;;;;;;6.38;3.67;;;;;;;10.30;74.57;97856.66;4898555;29;20048;-60
2022/10/04 01:09:30;;;;;;;4.78;4.03;;;;;;;10.26;74.65;97852.94;4915410;29;20048;-60
2022/10/04 01:12:04;;;;;;;6.38;4.15;;;;;;;10.22;74.19;97863.28;4882756;29;20055;-60
2022/10/04 01:14:46;;;;;;;4.40;3.75;;;;;;;10.21;74.83;97854.53;4882970;29;20063;-60
2022/10/04 01:17:12;;;;;;;5.05;4.10;;;;;;;10.22;75.58;97852.69;4882742;29;20099;-60
2022/10/04 01:19:40;;;;;;;4.00;3.60;;;;;;;10.21;74.20;97873.09;4898204;29;20479;-60
2022/10/04 01:22:47;;;;;;;4.72;3.97;;;;;;;10.24;74.76;97855.88;4915113;29;20078;-60
2022/10/04 01:26:02;;;;;;;5.00;3.80;;;;;;;10.22;75.38;97857.97;4887071;29;20099;-60
2022/10/04 01:28:28;;;;;;;5.07;4.10;;;;;;;10.23;75.13;97857.72;4881846;29;20313;-60
2022/10/04 01:30:53;;;;;;;4.75;4.10;;;;;;;10.24;74.91;97856.66;4882501;29;20044;-60
2022/10/04 01:33:19;;;;;;;7.82;4.10;;;;;;;10.23;75.21;97849.78;4914815;29;20526;-60
2022/10/04 01:35:45;;;;;;;4.78;4.07;;;;;;;10.19;75.46;97859.31;4914750;29;20151;-60
2022/10/04 01:38:11;;;;;;;5.18;4.22;;;;;;;10.15;76.01;97860.16;4897774;29;20062;-61
2022/10/04 01:40:44;;;;;;;4.90;4.40;;;;;;;10.10;75.54;97866.25;4915103;29;20059;-59
2022/10/04 01:43:13;;;;;;;4.78;4.28;;;;;;;10.10;76.30;97873.41;4897700;29;20411;-61
2022/10/04 01:45:49;;;;;;;6.38;4.18;;;;;;;10.08;75.91;97871.00;4897700;29;20427;-61
2022/10/04 01:48:19;;;;;;;4.90;4.40;;;;;;;10.10;76.09;97868.09;4897951;29;20450;-60
2022/10/04 01:51:11;;;;;;;5.03;4.40;;;;;;;10.10;75.37;97874.19;4914667;29;20056;-60
2022/10/04 01:54:10;;;;;;;4.40;3.75;;;;;;;10.08;75.64;97872.88;4912805;29;20454;-60
2022/10/04 01:56:44;;;;;;;4.93;3.92;;;;;;;10.03;75.88;97871.03;4897230;29;20138;-60
2022/10/04 01:59:17;;;;;;;8.60;4.45;;;;;;;10.00;76.05;97874.25;4914540;29;20072;-61
2022/10/04 02:01:47;;;;;;;4.68;4.22;;;;;;;9.93;76.22;97873.72;4914777;29;20040;-60
2022/10/04 02:04:32;;;;;;;5.47;4.00;;;;;;;9.87;76.34;97880.09;4897562;29;20064;-60
2022/10/04 02:06:59;;;;;;;4.80;4.30;;;;;;;9.82;76.41;97869.50;4881856;29;20036;-60
2022/10/04 02:09:30;;;;;;;6.30;4.28;;;;;;;9.78;76.62;97885.94;4897475;29;20453;-60
2022/10/04 02:11:58;;;;;;;4.72;4.32;;;;;;;9.76;76.85;97876.66;4897550;29;20067;-60
2022/10/04 02:14:27;;;;;;;6.40;4.32;;;;;;;9.70;77.16;97886.47;4897345;29;20055;-61
2022/10/04 02:16:52;;;;;;;7.07;5.20;;;;;;;9.68;77.20;97885.97;4914676;29;20040;-60
2022/10/04 02:19:24;;;;;;;6.43;4.35;;;;;;;9.68;76.73;97879.88;4897505;29;20450;-60
2022/10/04 02:21:51;;;;;;;8.00;4.68;;;;;;;9.78;76.73;97895.72;4897450;29;20055;-59
2022/10/04 02:24:17;;;;;;;6.90;4.85;;;;;;;9.82;77.26;97894.13;4914403;29;20133;-61
2022/10/04 02:26:49;;;;;;;7.75;4.68;;;;;;;9.84;76.83;97893.84;4914207;29;20108;-60
2022/10/04 02:29:16;;;;;;;6.05;4.70;;;;;;;9.81;77.22;97894.41;4897613;29;20070;-61
2022/10/04 02:34:26;;;;;;;5.22;4.10;;;;;;;9.83;77.21;97887.78;4915166;29;20183;-61
2022/10/04 02:36:51;;;;;;;5.07;4.50;;;;;;;9.81;76.99;97899.69;4901025;29;20143;-60
2022/10/04 02:39:20;;;;;;;7.95;4.65;;;;;;;9.75;77.10;97904.19;4901270;29;20176;-60
2022/10/04 02:41:53;;;;;;;5.40;4.00;;;;;;;9.70;77.86;97898.91;4918061;29;20047;-60
2022/10/04 02:44:38;;;;;;;5.22;4.10;;;;;;;9.68;78.03;97901.06;4900865;29;20131;-61
2022/10/04 02:47:24;;;;;;;6.00;4.55;;;;;;;9.67;77.42;97902.88;4917762;29;20054;-60
2022/10/04 02:50:08;;;;;;;5.53;4.57;;;;;;;9.63;77.15;97901.84;4885270;29;20123;-61
2022/10/04 02:52:57;;;;;;;5.78;4.57;;;;;;;9.63;77.62;97907.13;4900667;29;20048;-61
2022/10/04 02:55:29;;;;;;;7.45;4.78;;;;;;;9.63;77.95;97916.91;4900884;29;20048;-60
2022/10/04 02:57:55;;;;;;;6.35;5.05;;;;;;;9.61;78.43;97919.03;4917740;29;20075;-59
2022/10/04 03:00:27;;;;;;;11.52;5.07;;;;;;;9.59;78.10;97918.50;4917816;29;20052;-61
2022/10/04 03:03:15;;;;;;;6.38;5.30;;;;;;;9.60;77.90;97928.81;4901144;29;20103;-60
2022/10/04 03:05:42;;;;;;;6.97;4.72;;;;;;;9.61;78.38;97911.88;4917900;29;20056;-61
2022/10/04 03:08:08;;;;;;;5.95;4.95;;;;;;;9.64;78.68;97923.78;4917666;29;20044;-60
2022/10/04 03:10:34;;;;;;;8.73;5.03;;;;;;;9.61;79.45;97925.13;4917854;29;20088;-61
2022/10/04 03:13:01;;;;;;;13.50;5.50;;;;;;;9.58;79.13;97930.16;4917775;29;20370;-61
2022/10/04 03:15:26;;;;;;;8.20;4.85;;;;;;;9.55;79.30;97926.97;4900609;29;20063;-61
2022/10/04 03:17:52;;;;;;;6.20;5.10;;;;;;;9.59;79.47;97931.72;4917729;29;20040;-62
2022/10/04 03:20:20;;;;;;;6.18;4.93;;;;;;;9.58;78.86;97933.59;4917591;29;20107;-59
2022/10/04 03:22:49;;;;;;;7.03;5.18;;;;;;;9.53;79.48;97933.59;4917626;29;20052;-61
2022/10/04 03:25:26;;;;;;;7.78;5.80;;;;;;;9.48;79.73;97939.69;4917393;29;20076;-60
2022/10/04 03:27:55;;;;;;;7.47;5.90;;;;;;;9.49;79.95;97943.91;4901088;29;20048;-60
2022/10/04 03:30:21;;;;;;;9.45;5.57;;;;;;;9.53;80.10;97933.59;4900304;29;20066;-61
2022/10/04 03:32:48;;;;;;;7.40;5.53;;;;;;;9.57;79.16;97937.28;4900588;29;20040;-61
2022/10/04 03:35:31;;;;;;;7.53;5.45;;;;;;;9.62;79.49;97953.19;4900397;29;20071;-61
2022/10/04 03:37:57;;;;;;;7.20;5.78;;;;;;;9.62;79.16;97944.41;4900546;29;20032;-61
2022/10/04 03:40:26;;;;;;;7.75;5.82;;;;;;;9.60;80.00;97954.50;4900237;29;20088;-60
2022/10/04 03:42:52;;;;;;;7.45;5.43;;;;;;;9.60;79.50;97952.63;4900071;29;20059;-61
2022/10/04 03:45:19;;;;;;;12.35;5.28;;;;;;;9.54;79.67;97948.41;4916570;29;20044;-59
2022/10/04 03:47:47;;;;;;;7.25;5.10;;;;;;;9.56;80.03;97959.53;4899349;29;20532;-61
2022/10/04 03:50:34;;;;;;;6.65;5.47;;;;;;;9.59;80.05;97961.63;4917035;29;20044;-59
2022/10/04 03:53:08;;;;;;;8.82;5.50;;;;;;;9.58;79.40;97943.38;4899659;29;20135;-60
2022/10/04 03:55:37;;;;;;;9.18;5.63;;;;;;;9.56;79.77;97951.59;4899973;29;20087;-60
2022/10/04 03:58:04;;;;;;;9.20;5.50;;;;;;;9.59;79.95;97951.06;4899947;29;20430;-61
2022/10/04 04:00:30;;;;;;;10.60;4.82;;;;;;;9.56;79.24;97948.94;4884265;29;20103;-61
2022/10/04 04:03:04;;;;;;;7.60;5.72;;;;;;;9.54;79.76;97954.50;4899435;29;20040;-60
2022/10/04 04:05:34;;;;;;;8.18;5.32;;;;;;;9.55;79.50;97960.56;4883996;29;20056;-61
2022/10/04 04:08:13;;;;;;;8.65;5.30;;;;;;;9.63;79.33;97957.41;4899881;29;20040;-60
2022/10/04 04:10:42;;;;;;;7.05;5.55;;;;;;;9.65;79.33;97965.88;4899328;29;20055;-62
2022/10/04 04:13:26;;;;;;;7.38;5.68;;;;;;;9.72;79.34;97966.38;4916022;29;20425;-61
2022/10/04 04:15:53;;;;;;;6.70;5.43;;;;;;;9.80;78.78;97969.56;4883228;29;20509;-60
2022/10/04 04:18:22;;;;;;;8.05;5.78;;;;;;;9.77;78.58;97957.66;4898826;29;20048;-60
2022/10/04 04:20:50;;;;;;;7.07;5.25;;;;;;;9.76;78.79;97967.44;4899018;29;20051;-61
2022/10/04 04:23:31;;;;;;;8.23;5.47;;;;;;;9.77;78.95;97966.38;4915796;29;20077;-59
2022/10/04 04:26:16;;;;;;;7.20;5.00;;;;;;;9.77;78.83;97976.19;4916105;29;20216;-61
2022/10/04 04:28:47;;;;;;;8.38;5.03;;;;;;;9.73;78.98;97967.16;4914912;29;20052;-60
2022/10/04 04:31:27;;;;;;;8.70;5.32;;;;;;;9.75;79.01;97963.19;4914875;29;20532;-60
2022/10/04 04:33:59;;;;;;;6.95;4.95;;;;;;;9.72;79.29;97971.66;4915071;29;20036;-59
2022/10/04 04:40:21;;;;;;;8.10;5.00;;;;;;;9.78;79.42;97970.59;4915344;29;20514;-59
2022/10/04 04:42:47;;;;;;;6.50;5.30;;;;;;;9.79;78.91;97976.69;4915936;29;20048;-59
2022/10/04 04:45:18;;;;;;;8.20;4.53;;;;;;;9.78;78.76;97975.91;4915775;29;20127;-60
2022/10/04 04:47:47;;;;;;;7.53;5.00;;;;;;;9.85;78.44;97972.97;4916225;29;20044;-61
2022/10/04 04:50:14;;;;;;;6.97;5.03;;;;;;;9.89;78.43;97973.25;4914226;29;20106;-61
2022/10/04 04:52:47;;;;;;;5.32;4.63;;;;;;;9.98;78.15;97985.66;4914259;29;20052;-60
2022/10/04 04:55:23;;;;;;;7.00;4.78;;;;;;;9.94;78.20;97975.88;4915380;29;20060;-62
2022/10/04 04:57:54;;;;;;;8.00;4.82;;;;;;;10.08;78.39;97984.84;4882822;29;20163;-60
2022/10/04 05:00:25;;;;;;;8.27;5.05;;;;;;;10.14;78.06;97986.41;4899131;29;20098;-60
2022/10/04 05:02:53;;;;;;;;;;;;;;;10.23;77.10;97998.06;4915228;29;20039;-61
2022/10/04 05:05:21;;;;;;;6.90;4.65;;;;;;;10.31;77.34;97998.59;4914594;29;19934;-62
2022/10/04 05:07:47;;;;;;;6.72;4.63;;;;;;;10.40;76.38;97989.03;4914744;29;20047;-61
2022/10/04 05:10:30;;;;;;;7.78;4.82;;;;;;;10.48;76.19;97999.09;4915714;29;20107;-60
2022/10/04 05:13:00;;;;;;;9.57;4.43;;;;;;;10.41;75.48;97995.91;4915625;29;20586;-60
2022/10/04 05:15:27;;;;;;;6.93;5.18;;;;;;;10.43;75.77;97999.88;4915484;29;20052;-61
2022/10/04 05:17:53;;;;;;;6.25;5.00;;;;;;;10.51;75.64;98011.00;4909070;29;20075;-60
2022/10/04 05:20:19;;;;;;;7.72;4.57;;;;;;;10.58;75.16;98014.94;4898908;29;20075;-60
2022/10/04 05:22:46;;;;;;;7.18;5.05;;;;;;;10.73;75.45;98016.72;4915441;29;20414;-60
2022/10/04 05:25:24;;;;;;;7.97;4.70;;;;;;;10.75;74.77;98004.00;4898530;29;20502;-57
2022/10/04 05:27:50;;;;;;;6.22;4.78;;;;;;;10.73;74.68;98016.72;4915463;29;20514;-58
2022/10/04 05:30:25;;;;;;;6.93;5.20;;;;;;;10.77;74.78;98017.00;4898574;29;20107;-55
2022/10/04 05:32:59;;;;;;;7.75;5.50;;;;;;;10.84;74.07;98015.63;4915375;29;20044;-57
2022/10/04 05:35:26;;;;;;;9.27;5.10;;;;;;;10.85;73.85;98014.59;4915732;29;20048;-58
2022/10/04 05:38:30;;;;;;;7.68;4.97;;;;;;;10.82;73.17;98022.25;4915557;29;20067;-57
2022/10/04 05:41:06;;;;;;;5.82;5.13;;;;;;;10.86;73.27;98018.81;4897420;29;20102;-57
2022/10/04 05:43:37;;;;;;;6.22;5.13;;;;;;;10.86;72.90;98025.97;4898267;29;20506;-57
2022/10/04 05:46:09;;;;;;;8.20;5.20;;;;;;;10.90;72.77;98024.34;4898371;29;20564;-57
2022/10/04 05:48:35;;;;;;;6.50;4.68;;;;;;;10.97;72.38;98027.50;4915597;29;20177;-58
2022/10/04 05:51:01;;;;;;;5.78;4.55;;;;;;;10.96;72.45;98022.47;4898504;29;20118;-57
2022/10/04 05:53:32;;;;;;;6.55;4.93;;;;;;;10.98;72.65;98030.94;4896497;29;20138;-56
2022/10/04 05:56:25;;;;;;;11.52;5.60;;;;;;;10.96;73.00;98022.47;4896711;29;20091;-57
2022/10/04 05:59:17;;;;;;;6.65;5.35;;;;;;;10.98;72.54;98028.31;4912211;29;20044;-57
2022/10/04 06:01:55;;;;;;;9.02;6.13;;;;;;;10.95;73.24;98031.50;4913962;29;20099;-53
2022/10/04 06:04:27;;;;;;;7.10;5.28;;;;;;;10.90;73.04;98033.09;4911627;29;20435;-57
2022/10/04 06:06:58;;;;;;;7.43;5.78;;;;;;;10.94;72.77;98038.63;4895997;29;20044;-55
2022/10/04 06:09:56;;;;;;;6.10;5.50;;;;;;;10.95;73.53;98047.41;4897378;29;20047;-56
2022/10/04 06:12:30;;;;;;;6.88;4.93;;;;;;;11.01;72.83;98035.72;4900105;29;20048;-56
2022/10/04 06:15:25;;;;;;;10.20;5.85;;;;;;;11.02;72.42;98039.94;4915693;29;20052;-56
2022/10/04 06:18:12;;;;;;;6.00;4.63;;;;;;;11.04;72.20;98040.47;4897613;29;20138;-55
2022/10/04 06:20:42;;;;;;;8.90;5.55;;;;;;;11.12;72.45;98048.66;4899940;29;20048;-58
2022/10/04 06:23:15;;;;;;;8.02;5.32;;;;;;;11.09;72.00;98041.25;4916655;29;20052;-57
2022/10/04 06:25:48;;;;;;;9.48;5.63;;;;;;;11.13;72.11;98042.25;4916757;29;20088;-58
2022/10/04 06:28:22;;;;;;;9.10;5.03;;;;;;;11.10;72.08;98042.81;4899492;29;20064;-56
2022/10/04 06:31:18;;;;;;;7.40;5.40;;;;;;;11.07;71.50;98046.00;4917101;29;20455;-58
2022/10/04 06:33:52;;;;;;;7.80;5.40;;;;;;;11.13;71.39;98046.78;4916714;29;20426;-56
2022/10/04 06:36:48;;;;;;;7.03;5.47;;;;;;;11.17;71.00;98041.72;4916449;29;20048;-58
2022/10/04 06:39:19;;;;;;;6.13;5.20;;;;;;;11.20;71.03;98052.56;4898528;29;20074;-58
2022/10/04 06:42:32;;;;;;;7.45;5.07;;;;;;;11.13;71.43;98049.44;4915615;29;20040;-57
2022/10/04 06:45:30;;;;;;;5.32;4.82;;;;;;;11.16;71.58;98064.81;4905414;29;20060;-58
2022/10/04 06:48:21;;;;;;;8.90;5.03;;;;;;;11.18;71.07;98060.03;4897380;29;20059;-58
2022/10/04 06:50:46;;;;;;;;;;;;;;;11.29;70.80;98053.56;4914131;29;20134;-58
2022/10/04 06:53:34;;;;;;;6.55;4.95;;;;;;;11.37;69.85;98063.59;4915804;29;20063;-58
2022/10/04 06:56:08;;;;;;;5.72;4.72;;;;;;;11.39;70.28;98067.88;4876435;29;1127084;-56
2022/10/04 06:58:58;;;;;;;7.35;5.13;;;;;;;11.45;70.16;98061.47;4916695;29;20044;-57
2022/10/04 07:01:35;;;;;;;7.43;5.13;;;;;;;11.51;69.58;98057.69;4916600;29;20052;-57
2022/10/04 07:04:20;;;;;;;7.70;4.90;;;;;;;11.57;69.16;98067.22;4900214;29;20037;-55
2022/10/04 07:06:51;;;;;;;11.68;5.43;;;;;;;11.61;69.06;98065.59;4916007;29;20096;-57
2022/10/04 07:09:24;;;;;;;10.10;5.00;;;;;;;11.72;68.98;98071.63;4868040;29;20628;-58
2022/10/04 07:11:56;;;;;;;13.57;5.75;;;;;;;11.78;68.54;98067.84;4899490;29;20078;-58
2022/10/04 07:14:31;;;;;;;8.65;5.35;;;;;;;11.87;68.54;98073.41;4916009;29;20528;-57
2022/10/04 07:17:04;;;;;;;6.85;5.15;;;;;;;11.83;68.77;98062.53;4883988;29;20076;-57
2022/10/04 07:19:37;;;;;;;6.25;4.93;;;;;;;11.79;67.79;98074.75;4899932;29;20055;-57
2022/10/04 07:22:05;;;;;;;5.22;4.28;;;;;;;11.79;67.73;98074.75;4917047;29;20086;-57
2022/10/04 07:24:50;;;;;;;9.93;4.55;;;;;;;11.85;66.64;98078.97;4916443;29;20040;-57
2022/10/04 07:27:31;;;;;;;6.10;4.30;;;;;;;11.90;66.94;98080.81;4915495;29;20048;-57
2022/10/04 07:30:13;;;;;;;11.38;5.05;;;;;;;11.93;66.84;98082.91;4916066;29;20048;-56
2022/10/04 07:32:44;;;;;;;6.65;4.90;;;;;;;11.96;67.16;98085.00;4916631;29;20051;-59
2022/10/04 07:35:12;;;;;;;7.40;5.45;;;;;;;11.96;67.11;98080.47;4917339;29;20051;-57
2022/10/04 07:38:08;;;;;;;7.85;5.82;;;;;;;12.00;67.28;98081.53;4917475;29;20134;-58
2022/10/04 07:40:57;;;;;;;7.40;5.47;;;;;;;11.93;66.28;98083.69;4915736;29;20044;-58
2022/10/04 07:43:29;;;;;;;7.43;4.30;;;;;;;11.92;66.52;98082.13;4916207;29;20052;-56
2022/10/04 07:46:13;;;;;;;6.13;5.40;;;;;;;11.96;66.57;98082.34;4900377;29;20044;-58
2022/10/04 07:48:42;;;;;;;6.68;5.47;;;;;;;11.95;66.35;98073.59;4899876;29;20048;-56
2022/10/04 07:51:20;;;;;;;12.13;5.95;;;;;;;11.98;66.03;98081.00;4917099;29;20414;-59
2022/10/04 07:54:03;;;;;;;8.98;5.38;;;;;;;12.00;66.17;98080.72;4899559;29;20040;-58
2022/10/04 07:56:46;;;;;;;10.02;5.18;;;;;;;12.02;66.00;98082.03;4915186;29;20052;-59
2022/10/04 07:59:12;;;;;;;8.73;5.30;;;;;;;12.05;65.97;98084.13;4916718;29;20082;-58
2022/10/04 08:01:43;;;;;;;7.75;5.20;;;;;;;12.11;65.41;98079.56;4914995;29;20071;-57
2022/10/04 08:04:38;;;;;;;7.88;4.97;;;;;;;12.38;64.85;98076.41;4915561;29;20150;-58
2022/10/04 08:07:16;;;;;;;6.07;4.70;;;;;;;12.41;63.54;98067.88;4915918;29;20058;-57
2022/10/04 08:09:56;;;;;;;7.03;4.53;;;;;;;12.50;63.26;98081.34;4899294;29;20480;-57
2022/10/04 08:12:56;;;;;;;7.70;5.07;;;;;;;12.54;62.89;98079.69;4898613;29;20462;-60
2022/10/04 08:15:37;;;;;;;6.38;4.53;;;;;;;12.67;62.21;98087.00;4916050;29;20184;-59
2022/10/04 08:18:09;;;;;;;8.60;4.53;;;;;;;12.70;62.36;98080.31;4915619;29;20048;-69
2022/10/04 08:20:53;;;;;;;6.07;4.20;;;;;;;12.78;62.23;98081.56;4898081;29;20059;-63
2022/10/04 08:23:47;;;;;;;9.38;4.75;;;;;;;12.93;61.80;98084.84;4915335;29;20071;-58
2022/10/04 08:26:45;;;;;;;5.47;4.85;;;;;;;13.09;61.72;98074.81;4898714;29;20053;-55
2022/10/04 08:29:41;;;;;;;8.63;4.05;;;;;;;13.03;61.28;98064.50;4915415;29;20240;-58
2022/10/04 08:32:25;;;;;;;6.10;4.30;;;;;;;13.00;61.28;98076.53;4899255;29;20076;-56
2022/10/04 08:35:03;;;;;;;8.02;4.35;;;;;;;13.01;60.61;98072.78;4916112;29;20046;-57
2022/10/04 08:37:32;;;;;;;7.47;4.30;;;;;;;13.02;60.75;98078.91;4916070;29;20477;-59
2022/10/04 08:40:19;;;;;;;14.90;5.53;;;;;;;13.09;61.13;98076.69;4899176;29;20044;-60
2022/10/04 08:42:48;;;;;;;7.90;4.10;;;;;;;12.98;60.85;98073.34;4914596;29;20870;-61
2022/10/04 08:45:23;;;;;;;8.52;4.38;;;;;;;12.93;61.18;98078.72;4915644;29;20054;-61
2022/10/04 08:48:17;;;;;;;12.10;4.30;;;;;;;12.88;61.09;98081.44;4915568;29;20467;-60
2022/10/04 08:51:01;;;;;;;7.10;4.38;;;;;;;12.85;60.74;98082.81;4916059;29;20183;-60
2022/10/04 08:54:04;;;;;;;4.07;3.30;;;;;;;12.88;60.29;98082.25;4915285;29;20079;-60
2022/10/04 08:56:37;;;;;;;7.88;3.95;;;;;;;12.89;60.17;98073.19;4914482;29;20095;-60
2022/10/04 08:59:21;;;;;;;4.78;3.60;;;;;;;12.91;60.23;98079.03;4896357;29;20059;-62
2022/10/04 09:01:57;;;;;;;5.90;3.28;;;;;;;13.19;59.24;98071.22;4915157;29;20482;-60
2022/10/04 09:04:37;;;;;;;4.63;3.58;;;;;;;13.35;59.13;98063.84;4915652;29;20139;-60
2022/10/04 09:07:39;;;;;;;3.97;3.38;;;;;;;13.49;58.01;98066.59;4899277;29;20079;-59
2022/10/04 09:10:24;;;;;;;21.70;5.33;;;;;;;13.62;57.67;98074.66;4915671;29;20498;-58
2022/10/04 09:13:14;;;;;;;4.43;3.60;;;;;;;13.59;57.86;98077.13;4915360;29;20331;-58
2022/10/04 09:15:55;;;;;;;5.35;3.58;;;;;;;13.52;58.32;98071.34;4915646;29;20051;-59
2022/10/04 09:18:22;;;;;;;5.93;3.78;;;;;;;13.50;58.29;98060.19;4898560;29;20502;-62
2022/10/04 09:21:08;;;;;;;11.05;4.20;;;;;;;13.47;59.10;98074.06;4915627;29;20044;-60
2022/10/04 09:24:09;;;;;;;8.95;4.13;;;;;;;13.52;58.62;98056.16;4898864;29;20048;-60
2022/10/04 09:26:49;;;;;;;10.05;3.90;;;;;;;13.56;57.78;98062.50;4898691;29;20052;-59
2022/10/04 09:29:32;;;;;;;8.13;4.00;;;;;;;13.56;58.14;98061.69;4916268;29;20048;-60
2022/10/04 09:32:04;;;;;;;6.45;3.63;;;;;;;13.66;57.54;98069.53;4914300;29;20139;-58
2022/10/04 09:34:42;;;;;;;10.93;4.13;;;;;;;13.79;56.91;98065.34;4914354;29;20048;-57
2022/10/04 09:37:27;;;;;;;7.53;4.03;;;;;;;13.94;56.65;98054.47;4913220;29;20048;-57
2022/10/04 09:40:29;;;;;;;6.75;4.03;;;;;;;14.02;56.09;98047.66;4895841;29;20048;-57
2022/10/04 09:43:17;;;;;;;5.03;3.92;;;;;;;14.12;56.28;98052.81;4914062;29;20518;-60
2022/10/04 09:45:51;;;;;;;7.53;4.18;;;;;;;14.18;56.31;98045.53;4914523;29;20044;-57
2022/10/04 09:48:26;;;;;;;5.10;3.72;;;;;;;14.17;55.60;98038.59;4915039;29;20052;-59
2022/10/04 09:51:13;;;;;;;13.70;4.53;;;;;;;14.18;55.70;98050.88;4915245;29;20374;-60
2022/10/04 09:53:57;;;;;;;11.38;5.93;;;;;;;14.12;55.82;98049.34;4881360;29;20501;-60
2022/10/04 09:56:46;;;;;;;9.50;4.10;;;;;;;14.07;56.03;98045.69;4912592;29;20060;-59
2022/10/04 09:59:17;;;;;;;5.67;4.30;;;;;;;13.97;55.75;98045.88;4896192;29;20087;-59
2022/10/04 10:02:01;;;;;;;5.25;3.70;;;;;;;13.91;55.84;98044.34;4897110;29;20517;-60
2022/10/04 10:04:39;;;;;;;8.68;4.10;;;;;;;13.80;56.52;98064.28;4912717;29;20520;-59
2022/10/04 10:07:21;;;;;;;9.82;4.68;;;;;;;13.66;56.11;98044.78;4896282;29;20051;-60
2022/10/04 10:16:37;;;;;;;7.65;3.33;;;;;;;13.69;56.39;98052.19;4861244;29;20060;-59
2022/10/04 10:19:45;;;;;;;11.93;3.72;;;;;;;13.78;56.23;98047.78;4913418;29;20048;-60
2022/10/04 10:22:17;;;;;;;6.85;3.38;;;;;;;13.81;55.55;98055.19;4896300;29;20095;-60
2022/10/04 10:24:42;;;;;;;5.72;3.05;;;;;;;13.68;56.17;98056.72;4912767;29;20040;-61
2022/10/04 10:27:12;;;;;;;4.25;2.78;;;;;;;13.58;57.61;98070.19;4914236;29;20549;-61
2022/10/04 10:29:59;;;;;;;4.57;3.28;;;;;;;13.55;59.22;98076.88;4913105;29;20055;-61
2022/10/04 10:32:46;;;;;;;5.15;3.25;;;;;;;13.54;60.40;98077.97;4913691;29;20102;-60
2022/10/04 10:35:27;;;;;;;5.18;3.38;;;;;;;13.41;61.53;98078.66;4880748;29;20048;-61
2022/10/04 10:38:11;;;;;;;5.40;3.75;;;;;;;13.25;62.40;98083.41;4913746;29;20044;-59
2022/10/04 10:41:01;;;;;;;4.63;3.80;;;;;;;13.17;63.73;98119.41;4913831;29;20713;-60
2022/10/04 10:43:51;;;;;;;6.65;3.80;;;;;;;13.05;67.50;98131.53;4912414;29;20099;-59
2022/10/04 10:46:22;;;;;;;7.30;3.83;;;;;;;12.47;79.94;98156.31;4912524;29;20078;-59
2022/10/04 10:48:57;;;;;;;8.40;3.80;;;;;;;11.89;81.50;98151.72;4896706;29;20395;-60
2022/10/04 10:51:48;;;;;;;3.85;2.90;;;;;;;11.37;78.92;98153.03;4913424;29;20052;-59
2022/10/04 10:54:36;;;;;;;7.10;3.25;;;;;;;11.07;80.48;98201.69;4904196;29;20056;-60
2022/10/04 10:57:16;;;;;;;6.97;3.17;;;;;;;10.87;81.57;98200.66;4900054;29;20060;-58
2022/10/04 10:59:51;;;;;;;5.78;2.80;;;;;;;10.71;84.45;98191.16;4917963;29;20066;-58
2022/10/04 11:03:04;;;;;;;3.15;2.30;;;;;;;10.41;83.49;98202.53;4917983;29;20082;-60
2022/10/04 11:05:37;;;;;;;4.38;3.00;;;;;;;10.41;86.34;98213.13;4892553;29;20066;-59
2022/10/04 11:08:26;;;;;;;2.80;2.05;;;;;;;10.39;85.16;98218.72;4918113;29;20048;-60
2022/10/04 11:11:03;;;;;;;2.47;1.85;;;;;;;10.34;81.83;98221.34;4918257;29;20048;-60
2022/10/04 11:13:28;;;;;;;2.63;1.92;;;;;;;10.32;83.18;98214.72;4917898;29;20048;-60
2022/10/04 11:16:20;;;;;;;2.67;1.77;;;;;;;10.32;81.38;98214.72;4900849;29;20044;-59
2022/10/04 11:19:21;;;;;;;5.50;2.85;;;;;;;10.43;85.27;98230.34;4916987;29;20544;-59
2022/10/04 11:22:18;;;;;;;4.70;3.53;;;;;;;10.40;83.88;98236.19;4899810;29;20052;-62
2022/10/04 11:24:59;;;;;;;2.95;2.20;;;;;;;10.45;81.28;98227.47;4916822;29;20438;-58
2022/10/04 11:27:46;;;;;;;2.47;1.90;;;;;;;10.45;80.37;98235.41;4917407;29;20458;-60
2022/10/04 11:30:15;;;;;;;4.15;1.92;;;;;;;10.51;79.18;98225.59;4917239;29;20103;-58
2022/10/04 11:32:58;;;;;;;5.22;3.75;;;;;;;10.61;78.62;98221.09;4899939;29;20135;-59
2022/10/04 11:35:38;;;;;;;2.58;1.58;;;;;;;10.53;75.22;98221.63;4917744;29;20062;-60
2022/10/04 11:38:04;;;;;;;;;;;;;;;10.56;77.61;98226.41;4917532;29;20557;-60
2022/10/04 11:40:41;;;;;;;2.33;1.45;;;;;;;10.49;76.09;98233.81;4916217;29;20032;-59
2022/10/04 11:43:30;;;;;;;3.95;1.48;;;;;;;10.24;75.23;98239.88;4899715;29;20054;-60
2022/10/04 11:46:17;;;;;;;1.02;0.90;;;;;;;10.23;73.83;98228.47;4916443;29;20099;-61
2022/10/04 11:48:47;;;;;;;2.10;1.10;;;;;;;10.36;75.07;98239.66;4898972;29;20060;-58
2022/10/04 11:51:57;;;;;;;1.67;1.10;;;;;;;10.31;74.36;98239.63;4912482;29;20406;-60
2022/10/04 11:55:08;;;;;;;1.20;1.10;;;;;;;10.22;74.66;98250.72;4864047;29;20054;-62
2022/10/04 11:57:56;;;;;;;1.23;1.13;;;;;;;10.21;72.96;98265.00;4913428;29;20056;-61
2022/10/04 12:00:24;;;;;;;1.70;1.20;;;;;;;10.22;73.59;98257.84;4913897;29;20051;-59
2022/10/04 12:03:09;;;;;;;3.08;1.33;;;;;;;10.14;74.12;98250.44;4896322;29;20529;-59
2022/10/04 12:05:47;;;;;;;2.47;1.50;;;;;;;10.24;74.06;98256.53;4915561;29;20131;-59
2022/10/04 12:08:25;;;;;;;3.20;1.38;;;;;;;10.20;72.37;98266.06;4896774;29;20067;-60
2022/10/04 12:11:20;;;;;;;4.20;2.10;;;;;;;10.28;73.83;98258.69;4899575;29;20419;-60
2022/10/04 12:14:23;;;;;;;2.28;1.30;;;;;;;10.33;72.43;98261.38;4896536;29;20040;-60
2022/10/04 12:17:27;;;;;;;1.60;1.50;;;;;;;10.45;74.40;98264.56;4881079;29;20425;-59
2022/10/04 12:20:16;;;;;;;2.22;1.10;;;;;;;10.60;73.81;98271.72;4874770;29;20067;-60
2022/10/04 12:23:20;;;;;;;3.13;1.20;;;;;;;10.65;72.70;98277.81;4913165;29;20065;-60
2022/10/04 12:26:06;;;;;;;2.30;1.50;;;;;;;10.75;73.02;98274.38;4897182;29;20104;-59
2022/10/04 12:28:43;;;;;;;3.92;1.40;;;;;;;10.74;72.33;98270.13;4915103;29;20454;-57
2022/10/04 12:31:22;;;;;;;1.30;1.20;;;;;;;10.59;72.29;98286.00;4914502;29;20048;-59
2022/10/04 12:33:52;;;;;;;1.55;1.30;;;;;;;10.53;72.33;98287.06;4914549;29;20516;-60
2022/10/04 12:36:54;;;;;;;3.03;1.17;;;;;;;10.48;72.81;98289.72;4912774;29;20059;-59
2022/10/04 12:39:27;;;;;;;3.33;1.70;;;;;;;10.46;72.66;98285.47;4891908;29;20108;-57
2022/10/04 12:42:16;;;;;;;1.33;1.00;;;;;;;10.35;72.94;98291.84;4914732;29;20501;-58